This is the latest recevied weather packets stored in our database for station/object N9CQS-15. If no packets are shown the sender has not sent any weather packets the latest 1 day(s).
| Time | Temp. | Humidity | Pressure | Rain* | Wind** | Luminosity | Snow |
|---|---|---|---|---|---|---|---|
| 1778037541 | 8.33° C | 92% | 1012.1 hPa | 0 mm | - | - | - |
| 1778036941 | 8.33° C | 92% | 1012 hPa | 0 mm | - | - | - |
| 1778035741 | 8.33° C | 92% | 1011.9 hPa | 0 mm | - | - | - |
| 1778035142 | 8.33° C | 92% | 1011.4 hPa | - | - | - | - |
| 1778034542 | 8.33° C | 92% | 1011.4 hPa | 0 mm | - | - | - |
| 1778033942 | 8.33° C | 92% | 1011.6 hPa | 0 mm | - | - | - |
| 1778033342 | 8.33° C | 92% | 1011.4 hPa | 0 mm | - | - | - |
| 1778032741 | 7.78° C | 91% | 1011.1 hPa | 0 mm | - | - | - |
| 1778031542 | 7.78° C | 90% | 1010.4 hPa | - | - | - | - |
| 1778030942 | 7.78° C | 90% | 1010.3 hPa | - | - | - | - |
| 1778029742 | 7.78° C | 89% | 1010.6 hPa | 0.25 mm | - | - | - |
| 1778028542 | 7.78° C | 88% | 1010.2 hPa | - | - | - | - |
| 1778027341 | 7.78° C | 88% | 1009.9 hPa | - | - | - | - |
| 1778026742 | 8.33° C | 87% | 1010.2 hPa | - | - | - | - |
| 1778026142 | 8.33° C | 85% | 1010.2 hPa | 0 mm | - | - | - |
| 1778018942 | 9.44° C | 85% | 1009.7 hPa | 0 mm | - | - | - |
| 1778017142 | 10° C | 87% | 1010 hPa | 0.25 mm | - | - | - |
| 1778015942 | 9.44° C | 87% | 1010.6 hPa | 0 mm | - | - | - |
| 1778011742 | 9.44° C | 83% | 1011.3 hPa | 0 mm | - | - | - |
| 1778004542 | 11.67° C | 75% | 1010.2 hPa | 0 mm | - | - | - |
* Rain latest hour (hover to see other rain measurements)
** Current wind speed in m/s (hover to see current wind gust speed)